createdAt,value
2018-05-24T00:02:03.897Z,13.47
2018-05-24T00:04:30.330Z,13.50
2018-05-24T00:06:56.663Z,13.47
2018-05-24T00:09:22.968Z,13.44
2018-05-24T00:11:49.292Z,13.40
2018-05-24T00:14:15.687Z,13.46
2018-05-24T00:16:42.064Z,13.42
2018-05-24T00:19:08.451Z,13.42
2018-05-24T00:21:34.908Z,13.37
2018-05-24T00:24:01.313Z,13.36
2018-05-24T00:26:27.701Z,13.38
2018-05-24T00:28:54.085Z,13.35
2018-05-24T00:31:20.410Z,13.34
2018-05-24T00:33:46.718Z,13.32
2018-05-24T00:36:12.998Z,13.23
2018-05-24T00:38:39.352Z,13.18
2018-05-24T00:41:05.648Z,13.17
2018-05-24T00:43:32.008Z,13.21
2018-05-24T00:45:58.350Z,13.18
2018-05-24T00:48:24.705Z,13.19
2018-05-24T00:50:51.056Z,13.16
2018-05-24T00:53:17.449Z,13.14
2018-05-24T00:55:43.727Z,13.10
2018-05-24T00:58:10.014Z,13.09
2018-05-24T01:00:36.345Z,13.09
2018-05-24T01:03:02.769Z,13.10
2018-05-24T01:05:29.217Z,13.12
2018-05-24T01:07:55.626Z,13.09
2018-05-24T01:10:21.949Z,13.02
2018-05-24T01:12:48.488Z,13.02
2018-05-24T01:15:14.906Z,13.04
2018-05-24T01:17:41.204Z,13.01
2018-05-24T01:20:07.564Z,13.08
2018-05-24T01:22:34.017Z,13.16
2018-05-24T01:25:00.413Z,13.13
2018-05-24T01:27:26.744Z,13.09
2018-05-24T01:29:53.026Z,13.02
2018-05-24T01:32:19.487Z,12.93
2018-05-24T01:34:45.768Z,12.94
2018-05-24T01:40:12.384Z,12.92
2018-05-24T01:42:38.845Z,12.88
2018-05-24T01:45:05.120Z,12.88
2018-05-24T01:47:31.419Z,12.95
2018-05-24T01:49:57.751Z,13.08
2018-05-24T01:52:24.156Z,13.04
2018-05-24T01:54:50.485Z,13.11
2018-05-24T01:57:17.056Z,13.01
2018-05-24T01:59:43.442Z,12.97
2018-05-24T02:02:09.984Z,12.90
2018-05-24T02:04:36.482Z,12.86
2018-05-24T02:07:02.857Z,12.80
2018-05-24T02:09:29.241Z,12.82
2018-05-24T02:11:55.657Z,12.83
2018-05-24T02:14:21.987Z,12.79
2018-05-24T02:16:48.350Z,12.77
2018-05-24T02:19:15.144Z,12.76
2018-05-24T02:21:41.557Z,12.73
2018-05-24T02:24:07.829Z,12.74
2018-05-24T02:26:34.129Z,12.76
2018-05-24T02:29:00.442Z,12.74
2018-05-24T02:31:26.750Z,12.67
2018-05-24T02:33:53.176Z,12.65
2018-05-24T02:36:19.494Z,12.65
2018-05-24T02:38:45.841Z,12.65
2018-05-24T02:41:12.168Z,12.68
2018-05-24T02:43:38.500Z,12.69
2018-05-24T02:46:04.842Z,12.65
2018-05-24T02:48:31.325Z,12.68
2018-05-24T02:50:57.646Z,12.69
2018-05-24T02:53:24.630Z,12.66
2018-05-24T02:55:50.954Z,12.68
2018-05-24T02:58:17.240Z,12.64
2018-05-24T03:00:43.624Z,12.63
2018-05-24T03:03:10.012Z,12.62
2018-05-24T03:05:36.457Z,12.63
2018-05-24T03:08:02.873Z,12.62
2018-05-24T03:10:29.197Z,12.63
2018-05-24T03:12:55.509Z,12.68
2018-05-24T03:15:21.815Z,12.70
2018-05-24T03:17:48.191Z,12.73
2018-05-24T03:20:14.578Z,12.76
2018-05-24T03:22:40.937Z,12.74
2018-05-24T03:25:07.274Z,12.74
2018-05-24T03:27:33.605Z,12.75
2018-05-24T03:29:59.930Z,12.75
2018-05-24T03:32:26.365Z,12.79
2018-05-24T03:34:53.294Z,12.81
2018-05-24T03:37:19.860Z,12.83
2018-05-24T03:39:46.225Z,12.84
2018-05-24T03:42:12.680Z,12.92
2018-05-24T03:44:39.162Z,12.97
2018-05-24T03:47:05.620Z,12.98
2018-05-24T03:49:32.071Z,12.96
2018-05-24T03:51:58.467Z,13.02
2018-05-24T03:54:25.127Z,13.05
2018-05-24T03:56:51.455Z,13.12
2018-05-24T04:02:38.968Z,13.25
2018-05-24T04:05:05.363Z,13.33
2018-05-24T04:07:31.623Z,13.41
2018-05-24T04:09:58.140Z,13.48
2018-05-24T04:12:24.482Z,13.58
2018-05-24T04:14:50.777Z,13.65
2018-05-24T04:17:17.225Z,13.74
2018-05-24T04:19:44.024Z,13.79
2018-05-24T04:22:10.659Z,13.90
2018-05-24T04:24:37.011Z,14.05
2018-05-24T04:27:03.384Z,14.16
2018-05-24T04:29:29.759Z,14.31
2018-05-24T04:31:56.207Z,14.42
2018-05-24T04:34:22.515Z,14.50
2018-05-24T04:36:48.917Z,14.61
2018-05-24T04:39:15.297Z,14.77
2018-05-24T04:41:41.799Z,14.92
2018-05-24T04:44:08.591Z,15.15
2018-05-24T04:46:34.926Z,15.09
2018-05-24T04:49:01.372Z,15.31
2018-05-24T04:51:27.709Z,15.43
2018-05-24T04:53:54.089Z,15.74
2018-05-24T04:56:20.806Z,15.85
2018-05-24T04:58:47.401Z,15.74
2018-05-24T05:01:14.026Z,15.79
2018-05-24T05:03:40.449Z,15.66
2018-05-24T05:06:07.578Z,15.88
2018-05-24T05:08:34.067Z,16.03
2018-05-24T05:11:00.490Z,16.13
2018-05-24T05:13:26.958Z,16.34
2018-05-24T05:15:53.553Z,16.15
2018-05-24T05:18:20.179Z,16.27
2018-05-24T05:20:47.172Z,16.30
2018-05-24T05:23:13.944Z,16.75
2018-05-24T05:25:40.413Z,16.95
2018-05-24T05:28:07.055Z,17.01
2018-05-24T05:30:33.539Z,16.76
2018-05-24T05:33:00.053Z,16.92
2018-05-24T05:35:27.204Z,17.62
2018-05-24T05:37:53.634Z,18.46
2018-05-24T05:40:20.221Z,18.50
2018-05-24T05:42:46.669Z,18.32
2018-05-24T05:45:12.987Z,17.99
2018-05-24T05:47:39.409Z,17.92
2018-05-24T05:50:05.860Z,17.88
2018-05-24T05:52:32.402Z,17.72
2018-05-24T05:54:58.819Z,17.84
2018-05-24T05:57:25.969Z,17.38
2018-05-24T05:59:52.402Z,17.38
2018-05-24T06:02:19.308Z,17.21
2018-05-24T06:04:45.873Z,17.27
2018-05-24T06:07:12.350Z,17.29
2018-05-24T06:09:38.741Z,17.04
2018-05-24T06:12:05.232Z,17.13
2018-05-24T06:14:31.941Z,17.28
2018-05-24T06:16:58.242Z,17.09
2018-05-24T06:19:24.822Z,17.18
2018-05-24T06:21:51.477Z,17.30
2018-05-24T06:24:17.941Z,17.49
2018-05-24T06:26:44.461Z,17.49
2018-05-24T06:29:11.136Z,17.64
2018-05-24T06:31:37.680Z,17.64
2018-05-24T06:34:04.444Z,17.51
2018-05-24T06:36:31.406Z,17.52
2018-05-24T06:38:59.541Z,17.41
2018-05-24T06:41:26.214Z,17.49
2018-05-24T06:43:52.983Z,17.66
2018-05-24T06:46:19.537Z,17.61
2018-05-24T06:48:46.422Z,17.47
2018-05-24T06:51:12.938Z,17.61
2018-05-24T06:53:39.916Z,17.51
2018-05-24T06:56:07.132Z,17.70
2018-05-24T06:58:33.555Z,17.73
2018-05-24T07:00:59.969Z,17.84
2018-05-24T07:03:26.633Z,17.83
2018-05-24T07:05:53.228Z,17.82
2018-05-24T07:08:19.568Z,18.04
2018-05-24T07:10:46.054Z,17.84
2018-05-24T07:13:12.474Z,17.81
2018-05-24T07:15:38.919Z,18.10
2018-05-24T07:18:05.311Z,17.89
2018-05-24T07:20:31.735Z,17.84
2018-05-24T07:22:58.089Z,17.99
2018-05-24T07:25:24.513Z,18.08
2018-05-24T07:27:50.933Z,17.95
2018-05-24T07:30:17.249Z,17.92
2018-05-24T07:32:43.647Z,18.10
2018-05-24T07:35:10.275Z,18.09
2018-05-24T07:37:36.710Z,18.31
2018-05-24T07:40:03.195Z,18.31
2018-05-24T07:42:29.602Z,18.57
2018-05-24T07:44:56.130Z,18.25
2018-05-24T07:47:22.669Z,18.34
2018-05-24T07:49:49.053Z,18.21
2018-05-24T07:52:15.590Z,18.51
2018-05-24T07:54:42.077Z,18.47
2018-05-24T07:57:08.704Z,18.40
2018-05-24T07:59:35.174Z,18.31
2018-05-24T08:02:01.616Z,18.67
2018-05-24T08:04:28.283Z,18.52
2018-05-24T08:06:54.697Z,18.70
2018-05-24T08:09:21.032Z,18.81
2018-05-24T08:11:47.407Z,18.90
2018-05-24T08:14:13.738Z,18.99
2018-05-24T08:16:40.010Z,18.95
2018-05-24T08:19:06.377Z,19.05
2018-05-24T08:21:32.797Z,19.06
2018-05-24T08:23:59.287Z,19.05
2018-05-24T08:26:25.801Z,19.45
2018-05-24T08:28:52.259Z,19.80
2018-05-24T08:31:18.643Z,19.62
2018-05-24T08:33:45.006Z,19.71
2018-05-24T08:36:11.438Z,19.89
2018-05-24T08:38:37.885Z,19.79
2018-05-24T08:41:04.341Z,19.82
2018-05-24T08:43:30.721Z,19.70
2018-05-24T08:45:57.079Z,19.77
2018-05-24T08:48:23.433Z,19.79
2018-05-24T08:50:49.864Z,19.45
2018-05-24T08:53:16.855Z,19.08
2018-05-24T08:55:43.229Z,19.00
2018-05-24T08:58:09.690Z,18.95
2018-05-24T09:00:36.094Z,19.06
2018-05-24T09:03:02.455Z,19.08
2018-05-24T09:05:29.004Z,19.33
2018-05-24T09:07:55.471Z,19.18
2018-05-24T09:10:21.962Z,19.17
2018-05-24T09:12:48.515Z,19.03
2018-05-24T09:15:15.083Z,18.89
2018-05-24T09:17:41.557Z,19.00
2018-05-24T09:20:22.058Z,19.10
2018-05-24T09:22:51.542Z,19.16
2018-05-24T09:25:17.992Z,19.31
2018-05-24T09:27:44.385Z,19.29
2018-05-24T09:30:10.872Z,19.15
2018-05-24T09:32:37.270Z,19.36
2018-05-24T09:35:05.100Z,19.38
2018-05-24T09:37:31.547Z,19.66
2018-05-24T09:39:59.465Z,19.75
2018-05-24T09:42:26.769Z,19.79
2018-05-24T09:44:53.224Z,19.96
2018-05-24T09:47:19.649Z,20.23
2018-05-24T09:49:46.119Z,20.14
2018-05-24T09:52:12.550Z,20.27
2018-05-24T09:54:39.130Z,20.58
2018-05-24T09:57:05.598Z,21.20
2018-05-24T09:59:32.103Z,21.34
2018-05-24T10:01:58.557Z,21.58
2018-05-24T10:04:25.056Z,21.18
2018-05-24T10:06:51.547Z,20.81
2018-05-24T10:09:18.111Z,21.21
2018-05-24T10:11:45.290Z,21.75
2018-05-24T10:14:24.005Z,21.91
2018-05-24T10:16:53.792Z,21.93
2018-05-24T10:19:20.334Z,22.98
2018-05-24T10:21:46.898Z,23.11
2018-05-24T10:24:13.475Z,23.89
2018-05-24T10:26:40.070Z,24.20
2018-05-24T10:29:06.734Z,24.65
2018-05-24T10:31:33.422Z,23.63
2018-05-24T10:33:59.827Z,23.77
2018-05-24T10:36:26.278Z,24.12
2018-05-24T10:38:52.929Z,23.87
2018-05-24T10:41:19.349Z,23.67
2018-05-24T10:43:45.758Z,24.03
2018-05-24T10:46:12.326Z,23.78
2018-05-24T10:48:38.933Z,23.85
2018-05-24T10:51:05.770Z,24.21
2018-05-24T10:53:32.785Z,24.82
2018-05-24T10:55:59.637Z,24.58
2018-05-24T10:58:26.347Z,24.43
2018-05-24T11:00:52.955Z,24.26
2018-05-24T11:03:19.636Z,24.74
2018-05-24T11:05:46.252Z,25.11
2018-05-24T11:08:12.841Z,25.07
2018-05-24T11:10:39.387Z,25.11
2018-05-24T11:13:06.526Z,23.87
2018-05-24T11:15:33.273Z,22.86
2018-05-24T11:17:59.867Z,21.61
2018-05-24T11:20:26.429Z,20.81
2018-05-24T11:22:52.971Z,20.60
2018-05-24T11:25:19.454Z,20.11
2018-05-24T11:27:45.785Z,19.97
2018-05-24T11:30:12.245Z,19.97
2018-05-24T11:32:38.688Z,19.99
2018-05-24T11:35:05.073Z,19.85
2018-05-24T11:37:31.444Z,19.85
2018-05-24T11:39:58.008Z,19.92
2018-05-24T11:42:24.856Z,19.96
2018-05-24T11:44:51.497Z,20.05
2018-05-24T11:47:17.985Z,20.06
2018-05-24T11:49:44.501Z,19.82
2018-05-24T11:52:10.969Z,19.87
2018-05-24T11:54:37.400Z,19.87
2018-05-24T11:57:03.866Z,19.88
2018-05-24T11:59:30.242Z,19.80
2018-05-24T12:01:56.663Z,19.87
2018-05-24T12:04:23.032Z,19.73
2018-05-24T12:06:49.441Z,19.81
2018-05-24T12:09:15.899Z,19.98
2018-05-24T12:11:42.342Z,20.06
2018-05-24T12:14:08.947Z,20.34
2018-05-24T12:16:35.537Z,20.34
2018-05-24T12:19:02.085Z,20.37
2018-05-24T12:21:28.599Z,20.87
2018-05-24T12:23:55.335Z,21.24
2018-05-24T12:26:21.893Z,21.06
2018-05-24T12:28:48.455Z,21.20
2018-05-24T12:31:14.968Z,21.53
2018-05-24T12:33:41.467Z,21.67
2018-05-24T12:36:08.161Z,21.55
2018-05-24T12:38:34.678Z,21.14
2018-05-24T12:41:01.137Z,21.47
2018-05-24T12:43:27.602Z,21.57
2018-05-24T12:45:54.087Z,21.73
2018-05-24T12:48:20.605Z,21.76
2018-05-24T12:50:47.298Z,21.81
2018-05-24T12:53:14.066Z,21.99
2018-05-24T12:55:40.619Z,21.92
2018-05-24T12:58:07.100Z,21.81
2018-05-24T13:00:34.264Z,21.68
2018-05-24T13:03:00.813Z,21.25
2018-05-24T13:05:27.270Z,20.91
2018-05-24T13:07:53.835Z,20.68
2018-05-24T13:10:20.364Z,20.67
2018-05-24T13:12:46.815Z,20.60
2018-05-24T13:15:13.334Z,21.06
2018-05-24T13:17:39.900Z,20.94
2018-05-24T13:20:06.327Z,21.21
2018-05-24T13:22:32.711Z,21.18
2018-05-24T13:24:59.471Z,21.17
2018-05-24T13:27:26.374Z,21.23
2018-05-24T13:29:52.832Z,21.28
2018-05-24T13:32:19.571Z,21.59
2018-05-24T13:34:46.076Z,21.66
2018-05-24T13:37:12.517Z,21.63
2018-05-24T13:39:38.904Z,21.95
2018-05-24T13:42:05.776Z,21.87
2018-05-24T13:44:32.440Z,22.05
2018-05-24T13:46:58.990Z,22.22
2018-05-24T13:49:25.450Z,22.26
2018-05-24T13:51:51.964Z,21.80
2018-05-24T13:54:18.488Z,21.70
2018-05-24T13:56:44.862Z,21.64
2018-05-24T13:59:11.255Z,22.03
2018-05-24T14:01:37.923Z,22.04
2018-05-24T14:04:04.266Z,21.81
2018-05-24T14:06:30.698Z,21.69
2018-05-24T14:08:57.080Z,21.28
2018-05-24T14:11:23.497Z,21.02
2018-05-24T14:13:49.951Z,21.00
2018-05-24T14:16:16.417Z,21.05
2018-05-24T14:18:42.853Z,20.91
2018-05-24T14:21:09.418Z,20.83
2018-05-24T14:23:35.817Z,20.53
2018-05-24T14:26:02.326Z,20.34
2018-05-24T14:28:28.826Z,20.24
2018-05-24T14:30:55.343Z,20.12
2018-05-24T14:33:21.947Z,19.87
2018-05-24T14:35:48.433Z,19.69
2018-05-24T14:38:14.943Z,19.56
2018-05-24T14:40:41.591Z,19.45
2018-05-24T14:43:08.265Z,19.52
2018-05-24T14:45:34.923Z,19.66
2018-05-24T14:48:01.510Z,19.66
2018-05-24T14:50:28.133Z,19.84
2018-05-24T14:52:54.536Z,19.84
2018-05-24T14:55:21.030Z,19.94
2018-05-24T14:57:47.438Z,20.06
2018-05-24T15:00:13.893Z,20.04
2018-05-24T15:02:40.383Z,20.06
2018-05-24T15:05:06.770Z,20.16
2018-05-24T15:07:34.505Z,20.06
2018-05-24T15:10:00.922Z,19.90
2018-05-24T15:12:27.510Z,19.72
2018-05-24T15:14:54.205Z,19.71
2018-05-24T15:17:20.619Z,19.81
2018-05-24T15:19:47.034Z,19.95
2018-05-24T15:22:13.445Z,19.87
2018-05-24T15:24:39.846Z,19.80
2018-05-24T15:27:06.297Z,19.81
2018-05-24T15:29:32.689Z,19.86
2018-05-24T15:31:59.170Z,19.89
2018-05-24T15:34:25.821Z,19.85
2018-05-24T15:36:52.423Z,19.89
2018-05-24T15:39:18.895Z,20.00
2018-05-24T15:41:45.320Z,19.89
2018-05-24T15:44:11.757Z,19.81
2018-05-24T15:46:38.349Z,19.82
2018-05-24T15:49:04.729Z,19.84
2018-05-24T15:51:31.240Z,19.92
2018-05-24T15:53:58.064Z,19.69
2018-05-24T15:56:24.683Z,19.52
2018-05-24T15:58:51.227Z,19.55
2018-05-24T16:01:17.801Z,19.34
2018-05-24T16:03:44.252Z,19.48
2018-05-24T16:06:10.805Z,19.49
2018-05-24T16:08:37.441Z,19.44
2018-05-24T16:11:04.288Z,19.48
2018-05-24T16:13:30.966Z,19.41
2018-05-24T16:15:57.385Z,19.41
2018-05-24T16:18:23.789Z,18.97
2018-05-24T16:20:50.249Z,18.92
2018-05-24T16:23:16.710Z,18.94
2018-05-24T16:25:43.174Z,18.68
2018-05-24T16:28:09.579Z,18.41
2018-05-24T16:30:36.014Z,18.32
2018-05-24T16:33:02.893Z,18.34
2018-05-24T16:35:29.479Z,18.28
2018-05-24T16:37:56.027Z,18.39
2018-05-24T16:40:23.272Z,18.29
2018-05-24T16:42:50.084Z,18.18
2018-05-24T16:45:17.551Z,18.24
2018-05-24T16:47:45.701Z,18.23
2018-05-24T16:50:12.403Z,18.06
2018-05-24T16:52:38.918Z,18.01
2018-05-24T16:55:05.555Z,18.05
2018-05-24T16:57:32.134Z,18.09
2018-05-24T16:59:59.367Z,17.92
2018-05-24T17:02:26.358Z,17.78
2018-05-24T17:04:53.260Z,17.89
2018-05-24T17:07:21.814Z,17.80
2018-05-24T17:09:49.645Z,17.85
2018-05-24T17:12:16.588Z,17.77
2018-05-24T17:14:48.913Z,17.71
2018-05-24T17:17:15.991Z,17.67
2018-05-24T17:19:42.842Z,17.54
2018-05-24T17:22:10.256Z,17.46
2018-05-24T17:24:37.090Z,17.39
2018-05-24T17:27:04.375Z,17.29
2018-05-24T17:29:31.209Z,17.21
2018-05-24T17:31:58.212Z,17.19
2018-05-24T17:34:24.892Z,17.17
2018-05-24T17:36:51.426Z,17.12
2018-05-24T17:39:18.343Z,17.09
2018-05-24T17:41:45.154Z,17.02
2018-05-24T17:44:12.017Z,16.97
2018-05-24T17:46:38.839Z,16.97
2018-05-24T17:49:06.320Z,16.83
2018-05-24T17:51:33.270Z,16.72
2018-05-24T17:53:59.879Z,16.73
2018-05-24T17:56:26.512Z,16.64
2018-05-24T17:58:53.249Z,16.57
2018-05-24T18:01:19.979Z,16.61
2018-05-24T18:03:46.595Z,16.55
2018-05-24T18:06:13.080Z,16.54
2018-05-24T18:08:39.535Z,16.57
2018-05-24T18:11:06.069Z,16.52
2018-05-24T18:13:32.769Z,16.43
2018-05-24T18:15:59.723Z,16.43
2018-05-24T18:18:26.362Z,16.39
2018-05-24T18:20:52.962Z,16.37
2018-05-24T18:23:19.449Z,16.29
2018-05-24T18:25:46.050Z,16.20
2018-05-24T18:28:12.532Z,16.23
2018-05-24T18:30:39.377Z,16.18
2018-05-24T18:33:06.188Z,16.20
2018-05-24T18:35:33.625Z,16.13
2018-05-24T18:38:00.116Z,16.17
2018-05-24T18:40:27.137Z,15.99
2018-05-24T18:42:53.791Z,15.99
2018-05-24T18:45:20.529Z,15.97
2018-05-24T18:47:47.214Z,15.91
2018-05-24T18:50:13.658Z,15.89
2018-05-24T18:52:40.690Z,15.82
2018-05-24T18:55:07.455Z,15.71
2018-05-24T18:57:36.542Z,15.64
2018-05-24T19:00:03.424Z,15.66
2018-05-24T19:02:30.563Z,15.61
2018-05-24T19:04:58.160Z,15.59
2018-05-24T19:07:24.786Z,15.59
2018-05-24T19:09:51.367Z,15.51
2018-05-24T19:12:18.117Z,15.44
2018-05-24T19:14:44.637Z,15.38
2018-05-24T19:17:11.066Z,15.32
2018-05-24T19:19:37.579Z,15.25
2018-05-24T19:22:05.380Z,15.14
2018-05-24T19:24:32.124Z,15.04
2018-05-24T19:26:59.361Z,14.99
2018-05-24T19:29:26.061Z,14.88
2018-05-24T19:31:52.662Z,14.77
2018-05-24T19:34:19.237Z,14.68
2018-05-24T19:36:45.681Z,14.58
2018-05-24T19:39:12.161Z,14.48
2018-05-24T19:41:38.615Z,14.50
2018-05-24T19:44:05.353Z,14.40
2018-05-24T19:46:31.896Z,14.30
2018-05-24T19:48:58.432Z,14.24
2018-05-24T19:51:25.361Z,14.20
2018-05-24T19:53:52.167Z,14.14
2018-05-24T19:56:18.648Z,14.09
2018-05-24T19:58:45.493Z,14.06
2018-05-24T20:01:12.224Z,14.02
2018-05-24T20:03:39.031Z,13.96
2018-05-24T20:06:05.870Z,13.91
2018-05-24T20:08:32.503Z,13.81
2018-05-24T20:10:59.408Z,13.74
2018-05-24T20:13:26.356Z,13.69
2018-05-24T20:15:53.005Z,13.68
2018-05-24T20:18:19.452Z,13.66
2018-05-24T20:20:45.940Z,13.63
2018-05-24T20:23:12.687Z,13.61
2018-05-24T20:25:39.366Z,13.59
2018-05-24T20:28:05.811Z,13.55
2018-05-24T20:30:32.354Z,13.58
2018-05-24T20:32:59.078Z,13.49
2018-05-24T20:35:25.477Z,13.42
2018-05-24T20:37:52.004Z,13.43
2018-05-24T20:40:18.904Z,13.43
2018-05-24T20:42:45.927Z,13.38
2018-05-24T20:45:12.636Z,13.46
2018-05-24T20:47:39.285Z,13.43
2018-05-24T20:50:05.734Z,13.42
2018-05-24T20:52:32.300Z,13.37
2018-05-24T20:54:58.825Z,13.27
2018-05-24T20:57:25.381Z,13.28
2018-05-24T20:59:52.219Z,13.25
2018-05-24T21:02:18.680Z,13.21
2018-05-24T21:04:45.360Z,13.24
2018-05-24T21:07:12.010Z,13.24
2018-05-24T21:09:38.387Z,13.31
2018-05-24T21:12:04.973Z,13.27
2018-05-24T21:14:31.669Z,13.29
2018-05-24T21:16:58.231Z,13.31
2018-05-24T21:19:24.740Z,13.30
2018-05-24T21:21:51.318Z,13.25
2018-05-24T21:24:18.612Z,13.14
2018-05-24T21:26:45.356Z,13.15
2018-05-24T21:29:12.247Z,13.09
2018-05-24T21:31:38.736Z,13.03
2018-05-24T21:34:05.164Z,12.97
2018-05-24T21:36:32.086Z,12.94
2018-05-24T21:38:58.528Z,12.88
2018-05-24T21:41:24.999Z,12.88
2018-05-24T21:43:52.354Z,12.85
2018-05-24T21:46:19.081Z,12.79
2018-05-24T21:48:45.798Z,12.80
2018-05-24T21:51:12.608Z,12.75
2018-05-24T21:53:39.426Z,12.80
2018-05-24T21:56:05.872Z,12.74
2018-05-24T21:58:32.284Z,12.70
2018-05-24T22:00:58.737Z,12.62
2018-05-24T22:03:25.278Z,12.59
2018-05-24T22:05:51.808Z,12.58
2018-05-24T22:08:18.258Z,12.56
2018-05-24T22:10:44.661Z,12.58
2018-05-24T22:13:11.126Z,12.51
2018-05-24T22:15:37.658Z,12.51
2018-05-24T22:18:04.112Z,12.50
2018-05-24T22:20:30.649Z,12.40
2018-05-24T22:22:57.164Z,12.40
2018-05-24T22:25:23.505Z,12.37
2018-05-24T22:27:49.914Z,12.48
2018-05-24T22:30:16.298Z,12.57
2018-05-24T22:32:42.809Z,12.44
2018-05-24T22:35:09.363Z,12.33
2018-05-24T22:37:35.858Z,12.30
2018-05-24T22:40:02.796Z,12.24
2018-05-24T22:42:29.253Z,12.14
2018-05-24T22:44:55.687Z,12.11
2018-05-24T22:47:22.057Z,12.12
2018-05-24T22:49:48.474Z,12.15
2018-05-24T22:52:14.925Z,12.09
2018-05-24T22:54:41.392Z,12.11
2018-05-24T22:57:07.879Z,12.13
2018-05-24T22:59:34.396Z,12.09
2018-05-24T23:02:00.889Z,12.08
2018-05-24T23:04:27.474Z,12.07
2018-05-24T23:06:53.904Z,12.10
2018-05-24T23:09:20.393Z,12.10
2018-05-24T23:11:46.926Z,12.10
2018-05-24T23:14:13.456Z,12.01
2018-05-24T23:16:40.007Z,11.99
2018-05-24T23:19:06.421Z,12.01
2018-05-24T23:21:32.958Z,11.98
2018-05-24T23:23:59.409Z,11.95
2018-05-24T23:26:25.829Z,11.89
2018-05-24T23:28:52.231Z,11.88
2018-05-24T23:31:18.769Z,11.85
2018-05-24T23:33:45.406Z,11.85
2018-05-24T23:36:12.002Z,11.84
2018-05-24T23:38:38.416Z,11.79
2018-05-24T23:41:05.005Z,11.77
2018-05-24T23:43:31.483Z,11.73
2018-05-24T23:45:57.913Z,11.70
2018-05-24T23:48:24.508Z,11.71
2018-05-24T23:50:50.915Z,11.70
2018-05-24T23:53:17.349Z,11.71
2018-05-24T23:55:43.777Z,11.65
2018-05-24T23:58:10.361Z,11.63
